sensor_id;sensor_type;location;lat;lon;timestamp;P1;durP1;ratioP1;P2;durP2;ratioP2
35488;SDS011;21602;55.670;37.578;2024-03-22T00:01:25;10.48;;;4.95;;
35488;SDS011;21602;55.670;37.578;2024-03-22T00:03:51;12.45;;;5.90;;
35488;SDS011;21602;55.670;37.578;2024-03-22T00:06:17;14.10;;;7.65;;
35488;SDS011;21602;55.670;37.578;2024-03-22T00:11:11;7.57;;;4.70;;
35488;SDS011;21602;55.670;37.578;2024-03-22T00:13:37;10.85;;;5.55;;
35488;SDS011;21602;55.670;37.578;2024-03-22T00:16:03;15.18;;;5.50;;
35488;SDS011;21602;55.670;37.578;2024-03-22T00:18:29;12.38;;;5.68;;
35488;SDS011;21602;55.670;37.578;2024-03-22T00:20:55;10.80;;;4.90;;
35488;SDS011;21602;55.670;37.578;2024-03-22T00:23:21;10.25;;;5.13;;
35488;SDS011;21602;55.670;37.578;2024-03-22T00:25:46;11.35;;;5.95;;
35488;SDS011;21602;55.670;37.578;2024-03-22T00:28:12;10.82;;;5.03;;
35488;SDS011;21602;55.670;37.578;2024-03-22T00:30:38;11.32;;;5.40;;
35488;SDS011;21602;55.670;37.578;2024-03-22T00:33:04;9.75;;;5.35;;
35488;SDS011;21602;55.670;37.578;2024-03-22T00:35:29;9.45;;;5.85;;
35488;SDS011;21602;55.670;37.578;2024-03-22T00:37:55;9.85;;;5.38;;
35488;SDS011;21602;55.670;37.578;2024-03-22T00:40:21;11.63;;;5.07;;
35488;SDS011;21602;55.670;37.578;2024-03-22T00:42:47;9.95;;;5.82;;
35488;SDS011;21602;55.670;37.578;2024-03-22T00:45:12;9.15;;;5.45;;
35488;SDS011;21602;55.670;37.578;2024-03-22T00:47:38;12.88;;;5.07;;
35488;SDS011;21602;55.670;37.578;2024-03-22T00:50:04;9.60;;;5.97;;
35488;SDS011;21602;55.670;37.578;2024-03-22T00:52:30;11.30;;;5.20;;
35488;SDS011;21602;55.670;37.578;2024-03-22T00:54:56;9.35;;;5.68;;
35488;SDS011;21602;55.670;37.578;2024-03-22T00:57:22;11.25;;;5.95;;
35488;SDS011;21602;55.670;37.578;2024-03-22T00:59:48;12.68;;;6.15;;
35488;SDS011;21602;55.670;37.578;2024-03-22T01:02:13;9.88;;;5.05;;
35488;SDS011;21602;55.670;37.578;2024-03-22T01:04:39;10.02;;;5.75;;
35488;SDS011;21602;55.670;37.578;2024-03-22T01:07:05;9.60;;;5.18;;
35488;SDS011;21602;55.670;37.578;2024-03-22T01:09:31;10.77;;;5.22;;
35488;SDS011;21602;55.670;37.578;2024-03-22T01:11:57;11.43;;;5.68;;
35488;SDS011;21602;55.670;37.578;2024-03-22T01:14:22;8.82;;;5.07;;
35488;SDS011;21602;55.670;37.578;2024-03-22T01:16:48;10.23;;;5.43;;
35488;SDS011;21602;55.670;37.578;2024-03-22T01:19:14;8.40;;;5.43;;
35488;SDS011;21602;55.670;37.578;2024-03-22T01:21:40;12.98;;;6.38;;
35488;SDS011;21602;55.670;37.578;2024-03-22T01:24:06;8.18;;;5.30;;
35488;SDS011;21602;55.670;37.578;2024-03-22T01:26:31;10.25;;;5.75;;
35488;SDS011;21602;55.670;37.578;2024-03-22T01:28:57;13.35;;;6.35;;
35488;SDS011;21602;55.670;37.578;2024-03-22T01:31:23;11.68;;;5.60;;
35488;SDS011;21602;55.670;37.578;2024-03-22T01:33:49;13.63;;;6.63;;
35488;SDS011;21602;55.670;37.578;2024-03-22T01:36:17;11.73;;;6.45;;
35488;SDS011;21602;55.670;37.578;2024-03-22T01:38:42;11.45;;;6.40;;
35488;SDS011;21602;55.670;37.578;2024-03-22T01:41:08;9.80;;;5.07;;
35488;SDS011;21602;55.670;37.578;2024-03-22T01:43:36;11.10;;;6.15;;
35488;SDS011;21602;55.670;37.578;2024-03-22T01:46:02;10.05;;;5.78;;
35488;SDS011;21602;55.670;37.578;2024-03-22T01:48:29;10.88;;;5.60;;
35488;SDS011;21602;55.670;37.578;2024-03-22T01:50:57;12.55;;;5.72;;
35488;SDS011;21602;55.670;37.578;2024-03-22T01:53:23;8.18;;;4.82;;
35488;SDS011;21602;55.670;37.578;2024-03-22T01:55:48;8.48;;;5.43;;
35488;SDS011;21602;55.670;37.578;2024-03-22T01:58:14;11.40;;;5.45;;
35488;SDS011;21602;55.670;37.578;2024-03-22T02:00:41;9.13;;;5.78;;
35488;SDS011;21602;55.670;37.578;2024-03-22T02:03:07;17.45;;;5.75;;
35488;SDS011;21602;55.670;37.578;2024-03-22T02:05:34;8.05;;;4.68;;
35488;SDS011;21602;55.670;37.578;2024-03-22T02:07:59;12.48;;;5.05;;
35488;SDS011;21602;55.670;37.578;2024-03-22T02:10:25;9.15;;;5.45;;
35488;SDS011;21602;55.670;37.578;2024-03-22T02:12:52;11.50;;;5.45;;
35488;SDS011;21602;55.670;37.578;2024-03-22T02:15:18;14.85;;;5.50;;
35488;SDS011;21602;55.670;37.578;2024-03-22T02:17:44;7.50;;;5.43;;
35488;SDS011;21602;55.670;37.578;2024-03-22T02:20:10;14.68;;;5.25;;
35488;SDS011;21602;55.670;37.578;2024-03-22T02:22:37;18.35;;;6.85;;
35488;SDS011;21602;55.670;37.578;2024-03-22T02:25:03;8.00;;;4.85;;
35488;SDS011;21602;55.670;37.578;2024-03-22T02:27:30;10.25;;;5.43;;
35488;SDS011;21602;55.670;37.578;2024-03-22T02:29:55;14.90;;;5.97;;
35488;SDS011;21602;55.670;37.578;2024-03-22T02:32:21;11.55;;;5.68;;
35488;SDS011;21602;55.670;37.578;2024-03-22T02:34:47;11.07;;;6.07;;
35488;SDS011;21602;55.670;37.578;2024-03-22T02:37:13;10.45;;;5.80;;
35488;SDS011;21602;55.670;37.578;2024-03-22T02:39:39;10.25;;;5.90;;
35488;SDS011;21602;55.670;37.578;2024-03-22T02:42:05;11.13;;;5.55;;
35488;SDS011;21602;55.670;37.578;2024-03-22T02:44:31;11.43;;;6.97;;
35488;SDS011;21602;55.670;37.578;2024-03-22T02:46:57;11.48;;;6.10;;
35488;SDS011;21602;55.670;37.578;2024-03-22T02:49:22;12.75;;;5.88;;
35488;SDS011;21602;55.670;37.578;2024-03-22T02:51:49;12.98;;;6.90;;
35488;SDS011;21602;55.670;37.578;2024-03-22T02:54:15;11.27;;;6.70;;
35488;SDS011;21602;55.670;37.578;2024-03-22T02:56:41;18.25;;;6.40;;
35488;SDS011;21602;55.670;37.578;2024-03-22T02:59:07;10.88;;;5.60;;
35488;SDS011;21602;55.670;37.578;2024-03-22T03:01:32;11.18;;;6.47;;
35488;SDS011;21602;55.670;37.578;2024-03-22T03:03:58;11.75;;;6.38;;
35488;SDS011;21602;55.670;37.578;2024-03-22T03:06:24;11.80;;;5.95;;
35488;SDS011;21602;55.670;37.578;2024-03-22T03:08:50;13.88;;;7.43;;
35488;SDS011;21602;55.670;37.578;2024-03-22T03:11:15;19.17;;;7.35;;
35488;SDS011;21602;55.670;37.578;2024-03-22T03:13:41;14.63;;;7.15;;
35488;SDS011;21602;55.670;37.578;2024-03-22T03:16:07;12.95;;;6.03;;
35488;SDS011;21602;55.670;37.578;2024-03-22T03:18:33;15.48;;;7.47;;
35488;SDS011;21602;55.670;37.578;2024-03-22T03:20:59;11.43;;;7.05;;
35488;SDS011;21602;55.670;37.578;2024-03-22T03:23:25;10.35;;;7.38;;
35488;SDS011;21602;55.670;37.578;2024-03-22T03:25:50;9.45;;;6.88;;
35488;SDS011;21602;55.670;37.578;2024-03-22T03:28:16;13.32;;;7.07;;
35488;SDS011;21602;55.670;37.578;2024-03-22T03:30:43;13.05;;;7.68;;
35488;SDS011;21602;55.670;37.578;2024-03-22T03:33:09;21.02;;;7.85;;
35488;SDS011;21602;55.670;37.578;2024-03-22T03:35:35;15.27;;;7.75;;
35488;SDS011;21602;55.670;37.578;2024-03-22T03:38:00;14.38;;;7.97;;
35488;SDS011;21602;55.670;37.578;2024-03-22T03:40:29;11.90;;;7.00;;
35488;SDS011;21602;55.670;37.578;2024-03-22T03:42:54;12.88;;;7.43;;
35488;SDS011;21602;55.670;37.578;2024-03-22T03:45:21;12.45;;;7.68;;
35488;SDS011;21602;55.670;37.578;2024-03-22T03:47:46;20.13;;;8.38;;
35488;SDS011;21602;55.670;37.578;2024-03-22T03:50:12;21.55;;;9.07;;
35488;SDS011;21602;55.670;37.578;2024-03-22T03:52:38;10.68;;;7.70;;
35488;SDS011;21602;55.670;37.578;2024-03-22T03:55:04;15.10;;;8.95;;
35488;SDS011;21602;55.670;37.578;2024-03-22T03:57:30;12.82;;;8.45;;
35488;SDS011;21602;55.670;37.578;2024-03-22T03:59:56;12.90;;;8.45;;
35488;SDS011;21602;55.670;37.578;2024-03-22T04:02:21;13.63;;;8.55;;
35488;SDS011;21602;55.670;37.578;2024-03-22T04:04:47;16.77;;;8.25;;
35488;SDS011;21602;55.670;37.578;2024-03-22T04:07:13;14.80;;;8.07;;
35488;SDS011;21602;55.670;37.578;2024-03-22T04:09:39;12.75;;;7.95;;
35488;SDS011;21602;55.670;37.578;2024-03-22T04:12:04;20.10;;;9.05;;
35488;SDS011;21602;55.670;37.578;2024-03-22T04:14:33;16.75;;;9.07;;
35488;SDS011;21602;55.670;37.578;2024-03-22T04:16:59;17.73;;;8.65;;
35488;SDS011;21602;55.670;37.578;2024-03-22T04:19:25;18.35;;;8.60;;
35488;SDS011;21602;55.670;37.578;2024-03-22T04:21:51;18.75;;;9.65;;
35488;SDS011;21602;55.670;37.578;2024-03-22T04:24:17;14.35;;;8.60;;
35488;SDS011;21602;55.670;37.578;2024-03-22T04:26:42;22.88;;;8.23;;
35488;SDS011;21602;55.670;37.578;2024-03-22T04:29:08;15.23;;;8.85;;
35488;SDS011;21602;55.670;37.578;2024-03-22T04:31:34;18.15;;;9.40;;
35488;SDS011;21602;55.670;37.578;2024-03-22T04:34:00;27.08;;;10.23;;
35488;SDS011;21602;55.670;37.578;2024-03-22T04:36:25;20.75;;;9.15;;
35488;SDS011;21602;55.670;37.578;2024-03-22T04:38:51;18.17;;;9.80;;
35488;SDS011;21602;55.670;37.578;2024-03-22T04:41:19;23.70;;;10.80;;
35488;SDS011;21602;55.670;37.578;2024-03-22T04:43:45;19.42;;;10.60;;
35488;SDS011;21602;55.670;37.578;2024-03-22T04:46:11;17.05;;;9.38;;
35488;SDS011;21602;55.670;37.578;2024-03-22T04:48:42;29.15;;;11.93;;
35488;SDS011;21602;55.670;37.578;2024-03-22T04:51:35;21.88;;;10.18;;
35488;SDS011;21602;55.670;37.578;2024-03-22T04:54:23;18.88;;;10.35;;
35488;SDS011;21602;55.670;37.578;2024-03-22T04:56:59;20.40;;;11.18;;
35488;SDS011;21602;55.670;37.578;2024-03-22T05:02:29;20.73;;;10.45;;
35488;SDS011;21602;55.670;37.578;2024-03-22T05:04:55;18.48;;;10.40;;
35488;SDS011;21602;55.670;37.578;2024-03-22T05:07:29;20.65;;;11.27;;
35488;SDS011;21602;55.670;37.578;2024-03-22T05:10:09;17.25;;;11.23;;
35488;SDS011;21602;55.670;37.578;2024-03-22T05:12:35;23.40;;;11.07;;
35488;SDS011;21602;55.670;37.578;2024-03-22T05:15:02;17.08;;;10.45;;
35488;SDS011;21602;55.670;37.578;2024-03-22T05:17:31;24.48;;;12.05;;
35488;SDS011;21602;55.670;37.578;2024-03-22T05:20:02;24.13;;;11.23;;
35488;SDS011;21602;55.670;37.578;2024-03-22T05:22:39;19.48;;;11.15;;
35488;SDS011;21602;55.670;37.578;2024-03-22T05:25:05;19.60;;;11.65;;
35488;SDS011;21602;55.670;37.578;2024-03-22T05:30:30;22.95;;;11.95;;
35488;SDS011;21602;55.670;37.578;2024-03-22T05:32:56;23.75;;;12.07;;
35488;SDS011;21602;55.670;37.578;2024-03-22T05:35:24;17.13;;;10.60;;
35488;SDS011;21602;55.670;37.578;2024-03-22T05:37:55;17.77;;;10.90;;
35488;SDS011;21602;55.670;37.578;2024-03-22T05:40:21;20.65;;;12.82;;
35488;SDS011;21602;55.670;37.578;2024-03-22T05:42:49;19.83;;;10.88;;
35488;SDS011;21602;55.670;37.578;2024-03-22T05:45:16;16.85;;;10.52;;
35488;SDS011;21602;55.670;37.578;2024-03-22T05:50:36;16.73;;;11.60;;
35488;SDS011;21602;55.670;37.578;2024-03-22T05:53:05;25.38;;;13.77;;
35488;SDS011;21602;55.670;37.578;2024-03-22T05:55:36;23.70;;;12.23;;
35488;SDS011;21602;55.670;37.578;2024-03-22T05:58:07;23.60;;;13.00;;
35488;SDS011;21602;55.670;37.578;2024-03-22T06:00:46;16.42;;;11.38;;
35488;SDS011;21602;55.670;37.578;2024-03-22T06:03:23;17.67;;;10.77;;
35488;SDS011;21602;55.670;37.578;2024-03-22T06:06:00;24.73;;;10.77;;
35488;SDS011;21602;55.670;37.578;2024-03-22T06:08:27;19.98;;;11.05;;
35488;SDS011;21602;55.670;37.578;2024-03-22T06:11:00;20.20;;;11.75;;
35488;SDS011;21602;55.670;37.578;2024-03-22T06:13:26;22.95;;;13.40;;
35488;SDS011;21602;55.670;37.578;2024-03-22T06:15:54;26.55;;;11.95;;
35488;SDS011;21602;55.670;37.578;2024-03-22T06:18:20;24.98;;;13.88;;
35488;SDS011;21602;55.670;37.578;2024-03-22T06:20:46;24.98;;;12.30;;
35488;SDS011;21602;55.670;37.578;2024-03-22T06:23:17;25.83;;;12.80;;
35488;SDS011;21602;55.670;37.578;2024-03-22T06:25:50;21.15;;;13.10;;
35488;SDS011;21602;55.670;37.578;2024-03-22T06:28:20;27.42;;;12.52;;
35488;SDS011;21602;55.670;37.578;2024-03-22T06:30:52;22.40;;;12.75;;
35488;SDS011;21602;55.670;37.578;2024-03-22T06:33:21;27.55;;;12.30;;
35488;SDS011;21602;55.670;37.578;2024-03-22T06:35:49;27.77;;;12.82;;
35488;SDS011;21602;55.670;37.578;2024-03-22T06:38:18;27.00;;;13.95;;
35488;SDS011;21602;55.670;37.578;2024-03-22T06:40:49;18.88;;;11.60;;
35488;SDS011;21602;55.670;37.578;2024-03-22T06:43:20;23.52;;;15.00;;
35488;SDS011;21602;55.670;37.578;2024-03-22T06:45:50;21.92;;;12.52;;
35488;SDS011;21602;55.670;37.578;2024-03-22T06:48:22;20.15;;;12.57;;
35488;SDS011;21602;55.670;37.578;2024-03-22T06:50:52;26.85;;;12.27;;
35488;SDS011;21602;55.670;37.578;2024-03-22T06:53:19;24.33;;;12.00;;
35488;SDS011;21602;55.670;37.578;2024-03-22T06:55:53;25.63;;;13.18;;
35488;SDS011;21602;55.670;37.578;2024-03-22T06:58:28;20.98;;;11.60;;
35488;SDS011;21602;55.670;37.578;2024-03-22T07:00:55;20.00;;;14.18;;
35488;SDS011;21602;55.670;37.578;2024-03-22T07:03:21;21.30;;;11.85;;
35488;SDS011;21602;55.670;37.578;2024-03-22T07:05:47;16.42;;;11.52;;
35488;SDS011;21602;55.670;37.578;2024-03-22T07:08:13;23.92;;;11.82;;
35488;SDS011;21602;55.670;37.578;2024-03-22T07:10:39;17.70;;;12.55;;
35488;SDS011;21602;55.670;37.578;2024-03-22T07:13:05;24.23;;;9.90;;
35488;SDS011;21602;55.670;37.578;2024-03-22T07:15:31;20.48;;;9.63;;
35488;SDS011;21602;55.670;37.578;2024-03-22T07:17:58;15.13;;;8.10;;
35488;SDS011;21602;55.670;37.578;2024-03-22T07:20:24;18.23;;;9.13;;
35488;SDS011;21602;55.670;37.578;2024-03-22T07:22:50;16.08;;;9.57;;
35488;SDS011;21602;55.670;37.578;2024-03-22T07:25:17;14.95;;;7.38;;
35488;SDS011;21602;55.670;37.578;2024-03-22T07:27:43;16.10;;;9.43;;
35488;SDS011;21602;55.670;37.578;2024-03-22T07:30:09;15.48;;;8.60;;
35488;SDS011;21602;55.670;37.578;2024-03-22T07:32:34;21.67;;;10.88;;
35488;SDS011;21602;55.670;37.578;2024-03-22T07:35:03;16.52;;;8.75;;
35488;SDS011;21602;55.670;37.578;2024-03-22T07:37:30;15.43;;;7.80;;
35488;SDS011;21602;55.670;37.578;2024-03-22T07:39:55;10.82;;;8.27;;
35488;SDS011;21602;55.670;37.578;2024-03-22T07:42:21;16.65;;;7.40;;
35488;SDS011;21602;55.670;37.578;2024-03-22T07:44:47;16.95;;;8.20;;
35488;SDS011;21602;55.670;37.578;2024-03-22T07:47:13;15.20;;;6.97;;
35488;SDS011;21602;55.670;37.578;2024-03-22T07:49:39;15.88;;;6.78;;
35488;SDS011;21602;55.670;37.578;2024-03-22T07:52:05;12.80;;;7.30;;
35488;SDS011;21602;55.670;37.578;2024-03-22T07:54:31;17.20;;;8.48;;
35488;SDS011;21602;55.670;37.578;2024-03-22T07:56:57;17.55;;;7.35;;
35488;SDS011;21602;55.670;37.578;2024-03-22T07:59:23;18.98;;;7.22;;
35488;SDS011;21602;55.670;37.578;2024-03-22T08:01:49;8.32;;;5.82;;
35488;SDS011;21602;55.670;37.578;2024-03-22T08:04:15;12.50;;;7.28;;
35488;SDS011;21602;55.670;37.578;2024-03-22T08:06:40;14.35;;;6.20;;
35488;SDS011;21602;55.670;37.578;2024-03-22T08:09:09;15.70;;;6.88;;
35488;SDS011;21602;55.670;37.578;2024-03-22T08:11:34;16.45;;;6.80;;
35488;SDS011;21602;55.670;37.578;2024-03-22T08:14:00;13.85;;;6.97;;
35488;SDS011;21602;55.670;37.578;2024-03-22T08:16:29;10.93;;;5.90;;
35488;SDS011;21602;55.670;37.578;2024-03-22T08:18:56;13.55;;;6.10;;
35488;SDS011;21602;55.670;37.578;2024-03-22T08:21:22;14.82;;;5.72;;
35488;SDS011;21602;55.670;37.578;2024-03-22T08:23:49;11.38;;;5.85;;
35488;SDS011;21602;55.670;37.578;2024-03-22T08:26:16;12.75;;;6.10;;
35488;SDS011;21602;55.670;37.578;2024-03-22T08:28:42;11.18;;;6.78;;
35488;SDS011;21602;55.670;37.578;2024-03-22T08:31:08;15.98;;;6.07;;
35488;SDS011;21602;55.670;37.578;2024-03-22T08:33:33;13.00;;;6.18;;
35488;SDS011;21602;55.670;37.578;2024-03-22T08:35:59;10.38;;;5.47;;
35488;SDS011;21602;55.670;37.578;2024-03-22T08:38:26;16.45;;;6.65;;
35488;SDS011;21602;55.670;37.578;2024-03-22T08:40:52;14.27;;;6.57;;
35488;SDS011;21602;55.670;37.578;2024-03-22T08:43:18;11.70;;;5.78;;
35488;SDS011;21602;55.670;37.578;2024-03-22T08:45:44;20.33;;;5.47;;
35488;SDS011;21602;55.670;37.578;2024-03-22T08:48:09;13.38;;;7.95;;
35488;SDS011;21602;55.670;37.578;2024-03-22T08:50:35;14.10;;;6.88;;
35488;SDS011;21602;55.670;37.578;2024-03-22T08:53:01;13.70;;;5.65;;
35488;SDS011;21602;55.670;37.578;2024-03-22T08:55:32;9.70;;;5.15;;
35488;SDS011;21602;55.670;37.578;2024-03-22T08:57:58;7.32;;;4.00;;
35488;SDS011;21602;55.670;37.578;2024-03-22T09:00:23;7.43;;;4.13;;
35488;SDS011;21602;55.670;37.578;2024-03-22T09:02:49;10.70;;;6.50;;
35488;SDS011;21602;55.670;37.578;2024-03-22T09:05:15;15.98;;;8.45;;
35488;SDS011;21602;55.670;37.578;2024-03-22T09:07:41;9.07;;;4.40;;
35488;SDS011;21602;55.670;37.578;2024-03-22T09:10:07;8.45;;;4.82;;
35488;SDS011;21602;55.670;37.578;2024-03-22T09:12:34;14.88;;;5.68;;
35488;SDS011;21602;55.670;37.578;2024-03-22T09:15:00;10.23;;;5.22;;
35488;SDS011;21602;55.670;37.578;2024-03-22T09:17:30;16.60;;;5.72;;
35488;SDS011;21602;55.670;37.578;2024-03-22T09:19:56;9.98;;;6.45;;
35488;SDS011;21602;55.670;37.578;2024-03-22T09:22:21;15.55;;;5.55;;
35488;SDS011;21602;55.670;37.578;2024-03-22T09:24:48;8.70;;;5.32;;
35488;SDS011;21602;55.670;37.578;2024-03-22T09:27:15;7.88;;;5.65;;
35488;SDS011;21602;55.670;37.578;2024-03-22T09:29:41;10.57;;;4.82;;
35488;SDS011;21602;55.670;37.578;2024-03-22T09:32:09;13.18;;;5.07;;
35488;SDS011;21602;55.670;37.578;2024-03-22T09:34:35;11.30;;;5.30;;
35488;SDS011;21602;55.670;37.578;2024-03-22T09:37:00;12.93;;;5.15;;
35488;SDS011;21602;55.670;37.578;2024-03-22T09:39:27;12.57;;;5.22;;
35488;SDS011;21602;55.670;37.578;2024-03-22T09:41:53;9.52;;;5.72;;
35488;SDS011;21602;55.670;37.578;2024-03-22T09:44:23;11.10;;;5.63;;
35488;SDS011;21602;55.670;37.578;2024-03-22T09:46:50;10.52;;;5.45;;
35488;SDS011;21602;55.670;37.578;2024-03-22T09:49:17;8.50;;;5.43;;
35488;SDS011;21602;55.670;37.578;2024-03-22T09:51:44;11.45;;;5.60;;
35488;SDS011;21602;55.670;37.578;2024-03-22T09:54:10;11.30;;;5.57;;
35488;SDS011;21602;55.670;37.578;2024-03-22T09:56:38;9.85;;;5.10;;
35488;SDS011;21602;55.670;37.578;2024-03-22T09:59:07;7.88;;;5.20;;
35488;SDS011;21602;55.670;37.578;2024-03-22T10:01:34;10.30;;;5.15;;
35488;SDS011;21602;55.670;37.578;2024-03-22T10:04:00;11.93;;;5.40;;
35488;SDS011;21602;55.670;37.578;2024-03-22T10:06:26;11.07;;;6.13;;
35488;SDS011;21602;55.670;37.578;2024-03-22T10:08:54;13.52;;;5.95;;
35488;SDS011;21602;55.670;37.578;2024-03-22T10:11:19;11.00;;;5.45;;
35488;SDS011;21602;55.670;37.578;2024-03-22T10:13:46;8.65;;;5.03;;
35488;SDS011;21602;55.670;37.578;2024-03-22T10:16:16;13.10;;;6.28;;
35488;SDS011;21602;55.670;37.578;2024-03-22T10:18:45;14.15;;;6.25;;
35488;SDS011;21602;55.670;37.578;2024-03-22T10:21:10;10.80;;;5.00;;
35488;SDS011;21602;55.670;37.578;2024-03-22T10:23:36;10.48;;;5.45;;
35488;SDS011;21602;55.670;37.578;2024-03-22T10:26:02;11.88;;;5.65;;
35488;SDS011;21602;55.670;37.578;2024-03-22T10:28:29;16.27;;;6.88;;
35488;SDS011;21602;55.670;37.578;2024-03-22T10:30:55;13.43;;;5.68;;
35488;SDS011;21602;55.670;37.578;2024-03-22T10:33:21;12.40;;;5.47;;
35488;SDS011;21602;55.670;37.578;2024-03-22T10:35:52;12.80;;;5.57;;
35488;SDS011;21602;55.670;37.578;2024-03-22T10:38:22;12.52;;;5.78;;
35488;SDS011;21602;55.670;37.578;2024-03-22T10:40:48;16.35;;;5.88;;
35488;SDS011;21602;55.670;37.578;2024-03-22T10:43:15;12.90;;;5.70;;
35488;SDS011;21602;55.670;37.578;2024-03-22T10:45:42;10.20;;;6.18;;
35488;SDS011;21602;55.670;37.578;2024-03-22T10:48:13;13.85;;;6.10;;
35488;SDS011;21602;55.670;37.578;2024-03-22T10:50:45;14.32;;;5.80;;
35488;SDS011;21602;55.670;37.578;2024-03-22T10:53:16;15.07;;;5.78;;
35488;SDS011;21602;55.670;37.578;2024-03-22T10:55:46;10.90;;;6.10;;
35488;SDS011;21602;55.670;37.578;2024-03-22T10:58:17;9.02;;;5.55;;
35488;SDS011;21602;55.670;37.578;2024-03-22T11:00:46;8.98;;;5.38;;
35488;SDS011;21602;55.670;37.578;2024-03-22T11:03:12;15.18;;;5.80;;
35488;SDS011;21602;55.670;37.578;2024-03-22T11:05:48;9.45;;;5.72;;
35488;SDS011;21602;55.670;37.578;2024-03-22T11:08:24;11.10;;;6.05;;
35488;SDS011;21602;55.670;37.578;2024-03-22T11:10:56;9.85;;;5.40;;
35488;SDS011;21602;55.670;37.578;2024-03-22T11:13:22;12.20;;;6.57;;
35488;SDS011;21602;55.670;37.578;2024-03-22T11:15:49;10.88;;;6.72;;
35488;SDS011;21602;55.670;37.578;2024-03-22T11:18:16;14.53;;;6.70;;
35488;SDS011;21602;55.670;37.578;2024-03-22T11:20:42;13.20;;;5.70;;
35488;SDS011;21602;55.670;37.578;2024-03-22T11:23:12;12.00;;;5.60;;
35488;SDS011;21602;55.670;37.578;2024-03-22T11:25:38;13.65;;;6.22;;
35488;SDS011;21602;55.670;37.578;2024-03-22T11:28:04;12.70;;;5.35;;
35488;SDS011;21602;55.670;37.578;2024-03-22T11:30:32;10.43;;;6.13;;
35488;SDS011;21602;55.670;37.578;2024-03-22T11:33:02;10.35;;;6.07;;
35488;SDS011;21602;55.670;37.578;2024-03-22T11:35:29;12.80;;;5.07;;
35488;SDS011;21602;55.670;37.578;2024-03-22T11:37:55;15.57;;;5.35;;
35488;SDS011;21602;55.670;37.578;2024-03-22T11:40:22;9.02;;;4.90;;
35488;SDS011;21602;55.670;37.578;2024-03-22T11:42:49;13.85;;;6.15;;
35488;SDS011;21602;55.670;37.578;2024-03-22T11:45:17;10.75;;;5.93;;
35488;SDS011;21602;55.670;37.578;2024-03-22T11:47:46;9.55;;;5.38;;
35488;SDS011;21602;55.670;37.578;2024-03-22T11:50:12;11.60;;;5.70;;
35488;SDS011;21602;55.670;37.578;2024-03-22T11:52:42;11.35;;;5.20;;
35488;SDS011;21602;55.670;37.578;2024-03-22T11:55:14;9.23;;;5.53;;
35488;SDS011;21602;55.670;37.578;2024-03-22T11:57:40;8.63;;;5.28;;
35488;SDS011;21602;55.670;37.578;2024-03-22T12:00:07;11.90;;;5.95;;
35488;SDS011;21602;55.670;37.578;2024-03-22T12:02:40;13.00;;;4.97;;
35488;SDS011;21602;55.670;37.578;2024-03-22T12:05:08;5.82;;;4.35;;
35488;SDS011;21602;55.670;37.578;2024-03-22T12:07:36;13.10;;;5.43;;
35488;SDS011;21602;55.670;37.578;2024-03-22T12:10:03;8.48;;;4.75;;
35488;SDS011;21602;55.670;37.578;2024-03-22T12:12:31;8.85;;;5.15;;
35488;SDS011;21602;55.670;37.578;2024-03-22T12:14:57;8.73;;;4.00;;
35488;SDS011;21602;55.670;37.578;2024-03-22T12:17:23;7.85;;;4.50;;
35488;SDS011;21602;55.670;37.578;2024-03-22T12:19:49;11.65;;;5.57;;
35488;SDS011;21602;55.670;37.578;2024-03-22T12:22:16;7.72;;;4.38;;
35488;SDS011;21602;55.670;37.578;2024-03-22T12:24:42;10.05;;;5.32;;
35488;SDS011;21602;55.670;37.578;2024-03-22T12:27:08;7.55;;;5.32;;
35488;SDS011;21602;55.670;37.578;2024-03-22T12:29:34;11.45;;;6.05;;
35488;SDS011;21602;55.670;37.578;2024-03-22T12:32:01;5.40;;;4.40;;
35488;SDS011;21602;55.670;37.578;2024-03-22T12:34:30;16.38;;;4.68;;
35488;SDS011;21602;55.670;37.578;2024-03-22T12:36:57;12.27;;;5.63;;
35488;SDS011;21602;55.670;37.578;2024-03-22T12:39:24;6.40;;;4.22;;
35488;SDS011;21602;55.670;37.578;2024-03-22T12:41:49;8.20;;;4.32;;
35488;SDS011;21602;55.670;37.578;2024-03-22T12:44:15;11.30;;;5.07;;
35488;SDS011;21602;55.670;37.578;2024-03-22T12:46:41;8.82;;;4.45;;
35488;SDS011;21602;55.670;37.578;2024-03-22T12:49:08;13.57;;;6.32;;
35488;SDS011;21602;55.670;37.578;2024-03-22T12:51:35;8.88;;;5.28;;
35488;SDS011;21602;55.670;37.578;2024-03-22T12:54:01;10.82;;;5.15;;
35488;SDS011;21602;55.670;37.578;2024-03-22T12:56:28;7.40;;;4.47;;
35488;SDS011;21602;55.670;37.578;2024-03-22T12:58:54;8.52;;;5.00;;
35488;SDS011;21602;55.670;37.578;2024-03-22T13:01:21;12.07;;;5.32;;
35488;SDS011;21602;55.670;37.578;2024-03-22T13:03:47;8.20;;;4.63;;
35488;SDS011;21602;55.670;37.578;2024-03-22T13:06:13;10.23;;;4.78;;
35488;SDS011;21602;55.670;37.578;2024-03-22T13:08:38;13.52;;;4.68;;
35488;SDS011;21602;55.670;37.578;2024-03-22T13:11:04;9.63;;;4.43;;
35488;SDS011;21602;55.670;37.578;2024-03-22T13:13:34;6.15;;;4.00;;
35488;SDS011;21602;55.670;37.578;2024-03-22T13:15:59;8.77;;;3.75;;
35488;SDS011;21602;55.670;37.578;2024-03-22T13:18:30;9.20;;;4.07;;
35488;SDS011;21602;55.670;37.578;2024-03-22T13:20:56;7.07;;;4.40;;
35488;SDS011;21602;55.670;37.578;2024-03-22T13:23:24;8.40;;;4.18;;
35488;SDS011;21602;55.670;37.578;2024-03-22T13:25:50;8.68;;;4.00;;
35488;SDS011;21602;55.670;37.578;2024-03-22T13:28:19;7.00;;;3.58;;
35488;SDS011;21602;55.670;37.578;2024-03-22T13:30:58;12.50;;;4.07;;
35488;SDS011;21602;55.670;37.578;2024-03-22T13:33:38;6.82;;;3.97;;
35488;SDS011;21602;55.670;37.578;2024-03-22T13:38:58;10.07;;;3.60;;
35488;SDS011;21602;55.670;37.578;2024-03-22T13:41:27;6.70;;;4.57;;
35488;SDS011;21602;55.670;37.578;2024-03-22T13:43:53;11.75;;;4.90;;
35488;SDS011;21602;55.670;37.578;2024-03-22T13:46:21;13.32;;;5.78;;
35488;SDS011;21602;55.670;37.578;2024-03-22T13:48:47;17.83;;;9.60;;
35488;SDS011;21602;55.670;37.578;2024-03-22T13:51:13;12.68;;;6.78;;
35488;SDS011;21602;55.670;37.578;2024-03-22T13:53:39;15.98;;;8.73;;
35488;SDS011;21602;55.670;37.578;2024-03-22T13:56:05;14.25;;;7.25;;
35488;SDS011;21602;55.670;37.578;2024-03-22T13:58:31;7.88;;;4.65;;
35488;SDS011;21602;55.670;37.578;2024-03-22T14:00:57;8.13;;;4.70;;
35488;SDS011;21602;55.670;37.578;2024-03-22T14:03:23;9.20;;;3.97;;
35488;SDS011;21602;55.670;37.578;2024-03-22T14:05:48;5.78;;;3.60;;
35488;SDS011;21602;55.670;37.578;2024-03-22T14:08:14;6.80;;;4.15;;
35488;SDS011;21602;55.670;37.578;2024-03-22T14:10:40;9.13;;;4.18;;
35488;SDS011;21602;55.670;37.578;2024-03-22T14:13:06;16.88;;;4.85;;
35488;SDS011;21602;55.670;37.578;2024-03-22T14:15:34;6.40;;;4.20;;
35488;SDS011;21602;55.670;37.578;2024-03-22T14:18:01;9.20;;;4.82;;
35488;SDS011;21602;55.670;37.578;2024-03-22T14:20:28;6.33;;;3.30;;
35488;SDS011;21602;55.670;37.578;2024-03-22T14:22:55;7.93;;;3.85;;
35488;SDS011;21602;55.670;37.578;2024-03-22T14:25:21;6.22;;;3.60;;
35488;SDS011;21602;55.670;37.578;2024-03-22T14:27:47;7.93;;;4.03;;
35488;SDS011;21602;55.670;37.578;2024-03-22T14:30:14;6.40;;;4.22;;
35488;SDS011;21602;55.670;37.578;2024-03-22T14:35:45;12.20;;;4.70;;
35488;SDS011;21602;55.670;37.578;2024-03-22T14:38:11;10.68;;;5.35;;
35488;SDS011;21602;55.670;37.578;2024-03-22T14:40:37;13.13;;;5.40;;